createdAt,value
2023-03-21T00:00:06.855Z,24.20
2023-03-21T00:05:21.770Z,24.30
2023-03-21T00:10:51.160Z,24.30
2023-03-21T00:16:23.766Z,24.30
2023-03-21T00:21:59.556Z,24.40
2023-03-21T00:27:41.402Z,24.50
2023-03-21T00:32:39.740Z,24.60
2023-03-21T00:37:48.320Z,24.70
2023-03-21T00:42:59.486Z,24.80
2023-03-21T00:48:04.874Z,25.00
2023-03-21T00:53:10.483Z,25.10
2023-03-21T00:58:16.808Z,25.20
2023-03-21T01:03:25.216Z,25.30
2023-03-21T01:08:52.390Z,25.40
2023-03-21T01:14:14.566Z,25.60
2023-03-21T01:19:48.413Z,25.80
2023-03-21T01:25:08.876Z,26.00
2023-03-21T01:30:31.215Z,26.10
2023-03-21T01:35:49.265Z,26.40
2023-03-21T01:41:11.200Z,26.60
2023-03-21T01:52:49.655Z,26.80
2023-03-21T01:58:10.100Z,27.00
2023-03-21T02:03:54.128Z,27.30
2023-03-21T02:09:23.463Z,27.60
2023-03-21T02:15:01.927Z,27.80
2023-03-21T02:20:40.137Z,27.60
2023-03-21T02:26:16.164Z,27.60
2023-03-21T02:31:42.119Z,27.80
2023-03-21T02:36:59.798Z,28.20
2023-03-21T02:42:38.284Z,28.50
2023-03-21T02:47:52.533Z,29.00
2023-03-21T02:53:00.604Z,29.30
2023-03-21T02:58:13.444Z,29.90
2023-03-21T03:03:34.007Z,30.00
2023-03-21T03:09:02.714Z,29.90
2023-03-21T03:15:24.968Z,29.70
2023-03-21T03:20:45.908Z,29.60
2023-03-21T03:27:10.537Z,29.50
2023-03-21T03:38:26.761Z,30.60
2023-03-21T03:44:09.019Z,30.90
2023-03-21T03:49:27.091Z,31.10
2023-03-21T03:54:39.235Z,31.40
2023-03-21T03:59:47.689Z,30.90
2023-03-21T04:05:39.353Z,31.40
2023-03-21T04:10:49.405Z,32.20
2023-03-21T04:15:55.928Z,32.50
2023-03-21T04:21:07.138Z,32.60
2023-03-21T04:26:33.007Z,32.30
2023-03-21T04:31:59.054Z,32.10
2023-03-21T04:44:18.732Z,32.70
2023-03-21T04:49:25.171Z,33.00
2023-03-21T04:55:04.177Z,34.00
2023-03-21T05:00:13.251Z,33.90
2023-03-21T05:25:51.718Z,35.20
2023-03-21T05:31:45.339Z,32.70
2023-03-21T05:36:56.490Z,32.80
2023-03-21T05:42:09.208Z,32.90
2023-03-21T05:47:17.744Z,33.60
2023-03-21T05:52:26.082Z,33.60
2023-03-21T05:57:36.585Z,33.50
2023-03-21T06:04:12.586Z,32.30
2023-03-21T06:09:35.612Z,32.30
2023-03-21T06:36:32.877Z,32.90
2023-03-21T06:43:00.046Z,33.10
2023-03-21T06:48:08.786Z,34.10
2023-03-21T07:00:25.354Z,35.50
2023-03-21T07:05:31.629Z,35.90
2023-03-21T07:10:40.344Z,35.50
2023-03-21T07:15:50.406Z,33.70
2023-03-21T07:21:06.686Z,31.90
2023-03-21T07:26:13.776Z,31.70
2023-03-21T07:31:21.878Z,31.80
2023-03-21T07:36:30.334Z,31.90
2023-03-21T07:41:36.230Z,32.50
2023-03-21T07:47:21.246Z,32.90
2023-03-21T07:58:35.788Z,32.90
2023-03-21T08:03:45.211Z,32.80
2023-03-21T08:08:51.927Z,32.40
2023-03-21T08:14:03.544Z,32.10
2023-03-21T08:24:55.703Z,31.50
2023-03-21T08:30:13.734Z,31.00
2023-03-21T08:35:42.421Z,30.50
2023-03-21T08:41:38.889Z,30.10
2023-03-21T08:51:46.949Z,29.80
2023-03-21T08:56:55.735Z,29.60
2023-03-21T09:02:05.523Z,29.60
2023-03-21T09:07:17.552Z,29.70
2023-03-21T09:12:24.897Z,29.70
2023-03-21T09:17:59.997Z,29.90
2023-03-21T09:23:07.677Z,29.90
2023-03-21T09:28:14.578Z,29.80
2023-03-21T09:33:22.481Z,29.60
2023-03-21T09:38:38.335Z,29.70
2023-03-21T09:44:26.901Z,29.40
2023-03-21T09:49:44.950Z,29.20
2023-03-21T09:54:57.078Z,28.80
2023-03-21T10:00:26.169Z,28.40
2023-03-21T10:06:20.316Z,27.90
2023-03-21T10:11:50.201Z,27.60
2023-03-21T10:17:21.014Z,27.50
2023-03-21T10:22:26.896Z,27.40
2023-03-21T10:27:32.723Z,27.20
2023-03-21T10:32:39.542Z,27.10
2023-03-21T10:37:46.716Z,27.10
2023-03-21T10:42:52.647Z,27.10
2023-03-21T10:48:01.773Z,27.00
2023-03-21T10:53:25.914Z,26.80
2023-03-21T10:58:38.560Z,26.60
2023-03-21T11:03:51.845Z,26.60
2023-03-21T11:09:02.915Z,26.50
2023-03-21T11:14:23.949Z,26.40
2023-03-21T11:25:10.648Z,26.30
2023-03-21T11:30:28.130Z,26.30
2023-03-21T11:35:54.832Z,26.00
2023-03-21T11:41:34.982Z,25.90
2023-03-21T11:46:54.406Z,25.90
2023-03-21T11:52:33.776Z,25.90
2023-03-21T11:58:13.785Z,25.80
2023-03-21T12:04:11.729Z,25.80
2023-03-21T12:09:35.718Z,25.80
2023-03-21T12:15:10.229Z,25.70
2023-03-21T12:20:23.372Z,25.60
2023-03-21T12:25:36.085Z,25.50
2023-03-21T12:30:47.485Z,25.50
2023-03-21T12:36:34.361Z,25.50
2023-03-21T12:42:04.281Z,25.50
2023-03-21T12:47:23.088Z,25.60
2023-03-21T12:52:56.852Z,25.50
2023-03-21T13:04:49.431Z,25.50
2023-03-21T13:16:07.337Z,25.40
2023-03-21T13:21:39.844Z,25.30
2023-03-21T13:26:53.368Z,25.30
2023-03-21T13:32:36.285Z,25.40
2023-03-21T13:38:08.599Z,25.40
2023-03-21T13:43:51.329Z,25.40
2023-03-21T13:49:28.441Z,25.40
2023-03-21T14:13:33.081Z,25.40
2023-03-21T14:19:07.814Z,25.40
2023-03-21T14:24:29.439Z,25.40
2023-03-21T14:37:01.139Z,25.40
2023-03-21T14:41:11.508Z,25.40
2023-03-21T14:46:21.173Z,25.40
2023-03-21T14:51:29.241Z,25.30
2023-03-21T14:56:40.028Z,25.30
2023-03-21T15:01:53.139Z,25.30
2023-03-21T15:07:47.531Z,25.30
2023-03-21T15:13:14.116Z,25.20
2023-03-21T15:18:41.249Z,25.30
2023-03-21T15:23:51.077Z,25.20
2023-03-21T15:46:57.930Z,25.10
2023-03-21T15:52:45.137Z,25.20
2023-03-21T15:58:10.490Z,25.20
2023-03-21T16:03:31.272Z,25.10
2023-03-21T16:08:57.587Z,25.10
2023-03-21T16:14:03.532Z,25.10
2023-03-21T16:19:15.142Z,25.10
2023-03-21T16:24:23.555Z,25.10
2023-03-21T16:29:48.648Z,25.10
2023-03-21T16:34:58.381Z,25.10
2023-03-21T16:46:02.468Z,25.10
2023-03-21T16:51:19.651Z,25.10
2023-03-21T16:56:44.149Z,25.10
2023-03-21T17:01:52.509Z,25.00
2023-03-21T17:07:17.435Z,25.00
2023-03-21T17:12:28.964Z,24.90
2023-03-21T17:23:02.868Z,24.90
2023-03-21T17:28:13.934Z,24.90
2023-03-21T17:33:20.218Z,24.90
2023-03-21T17:38:26.478Z,24.90
2023-03-21T17:43:32.146Z,24.90
2023-03-21T17:48:38.765Z,24.90
2023-03-21T17:53:56.774Z,24.90
2023-03-21T17:59:11.373Z,24.80
2023-03-21T18:04:18.512Z,24.80
2023-03-21T18:09:27.838Z,24.90
2023-03-21T18:14:40.656Z,24.90
2023-03-21T18:19:46.772Z,24.90
2023-03-21T18:24:52.120Z,24.80
2023-03-21T18:35:26.558Z,24.80
2023-03-21T18:40:32.342Z,24.80
2023-03-21T18:45:37.400Z,24.90
2023-03-21T18:50:43.749Z,24.80
2023-03-21T18:55:52.378Z,24.90
2023-03-21T19:01:00.837Z,24.90
2023-03-21T19:06:08.771Z,25.00
2023-03-21T19:11:23.214Z,25.00
2023-03-21T19:16:32.726Z,24.80
2023-03-21T19:21:45.229Z,24.90
2023-03-21T19:26:54.767Z,24.80
2023-03-21T19:32:00.405Z,24.80
2023-03-21T19:37:05.681Z,24.80
2023-03-21T19:42:16.450Z,24.80
2023-03-21T19:47:24.105Z,24.70
2023-03-21T19:52:30.084Z,24.80
2023-03-21T19:57:36.414Z,24.70
2023-03-21T20:02:42.554Z,24.70
2023-03-21T20:07:48.717Z,24.70
2023-03-21T20:12:54.405Z,24.70
2023-03-21T20:18:00.425Z,24.60
2023-03-21T20:23:08.196Z,24.60
2023-03-21T20:28:24.277Z,24.60
2023-03-21T20:33:31.707Z,24.80
2023-03-21T20:38:38.709Z,24.70
2023-03-21T20:44:36.402Z,24.80
2023-03-21T20:49:10.973Z,24.70
2023-03-21T20:54:17.989Z,24.70
2023-03-21T20:59:27.533Z,24.70
2023-03-21T21:04:49.864Z,24.60
2023-03-21T21:09:59.668Z,24.60
2023-03-21T21:15:05.736Z,24.50
2023-03-21T21:20:19.133Z,24.50
2023-03-21T21:25:25.711Z,24.40
2023-03-21T21:30:34.475Z,24.40
2023-03-21T21:35:40.781Z,24.30
2023-03-21T21:40:49.482Z,24.40
2023-03-21T21:45:54.929Z,24.40
2023-03-21T21:51:02.406Z,24.40
2023-03-21T21:56:08.392Z,24.40
2023-03-21T22:01:17.336Z,24.40
2023-03-21T22:06:23.186Z,24.40
2023-03-21T22:11:28.782Z,24.40
2023-03-21T22:16:34.949Z,24.30
2023-03-21T22:21:40.266Z,24.30
2023-03-21T22:26:45.681Z,24.40
2023-03-21T22:31:51.386Z,24.30
2023-03-21T22:36:59.304Z,24.40
2023-03-21T22:42:06.342Z,24.40
2023-03-21T22:47:12.957Z,24.40
2023-03-21T22:52:18.621Z,24.40
2023-03-21T22:57:24.014Z,24.40
2023-03-21T23:02:29.594Z,24.40
2023-03-21T23:07:34.884Z,24.40
2023-03-21T23:12:40.741Z,24.40
2023-03-21T23:17:47.164Z,24.30
2023-03-21T23:22:52.782Z,24.40
2023-03-21T23:27:58.111Z,24.40
2023-03-21T23:33:03.732Z,24.40
2023-03-21T23:38:09.525Z,24.40
2023-03-21T23:43:15.220Z,24.50
2023-03-21T23:48:20.646Z,24.50
2023-03-21T23:53:25.991Z,24.60
2023-03-21T23:58:32.231Z,24.60
